createdAt,value
2022-10-16T00:02:34.871Z,21.40
2022-10-16T00:05:20.274Z,21.40
2022-10-16T00:08:05.986Z,21.50
2022-10-16T00:10:52.044Z,21.40
2022-10-16T00:13:39.310Z,21.40
2022-10-16T00:16:25.019Z,21.40
2022-10-16T00:19:12.985Z,21.30
2022-10-16T00:21:58.522Z,21.20
2022-10-16T00:24:44.013Z,21.30
2022-10-16T00:27:29.593Z,21.20
2022-10-16T00:30:15.213Z,21.10
2022-10-16T00:33:00.608Z,21.30
2022-10-16T00:35:46.375Z,21.30
2022-10-16T00:38:32.414Z,21.20
2022-10-16T00:41:18.701Z,21.20
2022-10-16T00:44:42.295Z,21.20
2022-10-16T00:47:35.024Z,21.30
2022-10-16T00:50:33.980Z,21.30
2022-10-16T00:53:19.425Z,21.10
2022-10-16T00:56:05.222Z,21.10
2022-10-16T00:58:51.289Z,21.10
2022-10-16T01:01:37.940Z,21.10
2022-10-16T01:04:25.358Z,21.00
2022-10-16T01:07:47.771Z,20.80
2022-10-16T01:10:40.311Z,20.50
2022-10-16T01:13:33.839Z,20.60
2022-10-16T01:16:34.623Z,20.60
2022-10-16T01:19:26.023Z,20.30
2022-10-16T01:22:12.072Z,20.50
2022-10-16T01:25:04.081Z,20.50
2022-10-16T01:27:50.257Z,20.80
2022-10-16T01:30:37.423Z,21.10
2022-10-16T01:33:29.805Z,21.20
2022-10-16T01:36:24.560Z,21.30
2022-10-16T01:39:12.463Z,21.30
2022-10-16T01:42:31.773Z,21.30
2022-10-16T01:45:20.141Z,20.90
2022-10-16T01:48:08.884Z,20.80
2022-10-16T01:51:07.834Z,20.60
2022-10-16T01:53:56.384Z,20.50
2022-10-16T01:56:43.806Z,20.50
2022-10-16T01:59:33.973Z,20.50
2022-10-16T02:02:21.054Z,20.10
2022-10-16T02:05:18.715Z,20.10
2022-10-16T02:08:05.802Z,19.90
2022-10-16T02:10:51.665Z,19.90
2022-10-16T02:13:46.139Z,20.10
2022-10-16T02:16:44.052Z,20.30
2022-10-16T02:19:30.686Z,20.60
2022-10-16T02:22:29.048Z,20.80
2022-10-16T02:25:23.296Z,20.80
2022-10-16T02:28:32.018Z,20.40
2022-10-16T02:31:24.021Z,20.50
2022-10-16T02:34:12.869Z,20.50
2022-10-16T02:37:00.755Z,20.20
2022-10-16T02:39:46.864Z,20.10
2022-10-16T02:42:40.756Z,20.20
2022-10-16T02:45:26.787Z,20.20
2022-10-16T02:48:13.009Z,19.90
2022-10-16T02:50:58.663Z,20.20
2022-10-16T02:53:44.280Z,20.00
2022-10-16T02:56:30.644Z,19.80
2022-10-16T02:59:16.637Z,20.00
2022-10-16T03:02:02.097Z,20.00
2022-10-16T03:04:47.545Z,20.40
2022-10-16T03:07:33.019Z,20.60
2022-10-16T03:10:18.534Z,20.30
2022-10-16T03:13:04.290Z,19.90
2022-10-16T03:15:49.716Z,19.90
2022-10-16T03:18:35.610Z,19.90
2022-10-16T03:21:21.193Z,19.60
2022-10-16T03:24:06.767Z,19.70
2022-10-16T03:26:52.296Z,19.80
2022-10-16T03:29:37.915Z,19.80
2022-10-16T03:32:24.053Z,19.50
2022-10-16T03:35:09.880Z,19.50
2022-10-16T03:37:55.527Z,19.60
2022-10-16T03:40:41.558Z,19.60
2022-10-16T03:43:27.285Z,19.70
2022-10-16T03:46:12.767Z,20.00
2022-10-16T03:48:58.109Z,20.20
2022-10-16T03:51:43.778Z,20.00
2022-10-16T03:54:29.372Z,19.90
2022-10-16T03:57:14.771Z,20.00
2022-10-16T04:00:00.402Z,20.20
2022-10-16T04:05:36.956Z,19.80
2022-10-16T04:08:22.642Z,19.70
2022-10-16T04:11:08.064Z,19.90
2022-10-16T04:13:53.388Z,20.10
2022-10-16T04:16:38.845Z,20.20
2022-10-16T04:19:24.337Z,20.30
2022-10-16T04:22:09.983Z,19.90
2022-10-16T04:24:55.474Z,19.70
2022-10-16T04:27:43.609Z,19.90
2022-10-16T04:30:31.639Z,19.90
2022-10-16T04:33:17.575Z,19.90
2022-10-16T04:36:03.971Z,19.90
2022-10-16T04:38:49.642Z,19.80
2022-10-16T04:41:35.295Z,19.90
2022-10-16T04:44:20.686Z,20.00
2022-10-16T04:47:06.935Z,19.80
2022-10-16T04:49:52.811Z,19.80
2022-10-16T04:52:38.586Z,20.00
2022-10-16T04:55:24.423Z,20.10
2022-10-16T04:58:10.212Z,20.20
2022-10-16T05:00:55.994Z,20.30
2022-10-16T05:03:41.602Z,20.30
2022-10-16T05:06:27.142Z,20.40
2022-10-16T05:09:13.327Z,20.40
2022-10-16T05:11:59.029Z,20.40
2022-10-16T05:14:44.713Z,20.40
2022-10-16T05:17:30.664Z,20.40
2022-10-16T05:20:16.050Z,20.30
2022-10-16T05:23:01.661Z,20.20
2022-10-16T05:25:59.021Z,20.20
2022-10-16T05:28:44.863Z,20.20
2022-10-16T05:31:30.430Z,20.20
2022-10-16T05:34:16.360Z,20.30
2022-10-16T05:37:01.794Z,20.20
2022-10-16T05:39:47.324Z,20.30
2022-10-16T05:42:33.188Z,20.30
2022-10-16T05:45:18.590Z,19.80
2022-10-16T05:48:04.260Z,19.90
2022-10-16T05:50:57.012Z,20.00
2022-10-16T05:56:30.011Z,19.90
2022-10-16T05:59:15.647Z,20.10
2022-10-16T06:02:01.400Z,20.10
2022-10-16T06:04:47.251Z,20.10
2022-10-16T06:07:36.627Z,20.20
2022-10-16T06:10:22.369Z,20.20
2022-10-16T06:13:07.790Z,20.00
2022-10-16T06:15:53.739Z,19.80
2022-10-16T06:18:39.898Z,19.70
2022-10-16T06:21:27.163Z,19.70
2022-10-16T06:24:13.261Z,19.60
2022-10-16T06:26:59.013Z,18.90
2022-10-16T06:29:46.183Z,19.20
2022-10-16T06:32:31.499Z,19.50
2022-10-16T06:35:17.062Z,19.80
2022-10-16T06:38:02.542Z,19.70
2022-10-16T06:40:49.565Z,19.70
2022-10-16T06:43:38.103Z,19.30
2022-10-16T06:46:25.288Z,18.90
2022-10-16T06:49:10.621Z,18.80
2022-10-16T06:51:56.405Z,19.40
2022-10-16T06:54:42.603Z,19.60
2022-10-16T06:57:28.323Z,19.80
2022-10-16T07:00:13.942Z,19.90
2022-10-16T07:02:59.794Z,19.80
2022-10-16T07:05:45.154Z,19.60
2022-10-16T07:08:36.390Z,19.50
2022-10-16T07:11:23.947Z,19.70
2022-10-16T07:14:28.113Z,18.90
2022-10-16T07:17:13.691Z,19.10
2022-10-16T07:19:59.465Z,19.60
2022-10-16T07:22:45.450Z,19.70
2022-10-16T07:25:31.002Z,19.90
2022-10-16T07:28:16.612Z,20.00
2022-10-16T07:31:08.805Z,20.30
2022-10-16T07:33:54.953Z,20.60
2022-10-16T07:39:31.100Z,20.70
2022-10-16T07:42:16.645Z,19.90
2022-10-16T07:45:02.185Z,19.60
2022-10-16T07:47:48.104Z,19.30
2022-10-16T07:50:33.796Z,19.80
2022-10-16T07:53:22.424Z,20.70
2022-10-16T07:56:11.741Z,21.00
2022-10-16T07:58:57.653Z,20.20
2022-10-16T08:01:43.573Z,20.10
2022-10-16T08:04:29.229Z,20.00
2022-10-16T08:07:14.847Z,19.80
2022-10-16T08:10:00.377Z,19.80
2022-10-16T08:12:46.319Z,20.30
2022-10-16T08:15:31.944Z,21.10
2022-10-16T08:18:17.648Z,21.60
2022-10-16T08:21:03.490Z,21.80
2022-10-16T08:23:54.574Z,21.80
2022-10-16T08:26:42.946Z,22.30
2022-10-16T08:29:28.613Z,22.30
2022-10-16T08:32:14.514Z,21.40
2022-10-16T08:35:00.359Z,21.40
2022-10-16T08:37:45.960Z,22.00
2022-10-16T08:40:33.821Z,22.20
2022-10-16T08:43:28.448Z,21.90
2022-10-16T08:46:38.291Z,22.70
2022-10-16T08:49:25.619Z,23.10
2022-10-16T08:52:16.237Z,23.40
2022-10-16T08:55:02.980Z,23.80
2022-10-16T08:57:48.456Z,24.20
2022-10-16T09:00:34.671Z,24.20
2022-10-16T09:03:46.297Z,24.20
2022-10-16T09:06:53.487Z,23.40
2022-10-16T09:09:57.463Z,23.20
2022-10-16T09:12:52.905Z,23.20
2022-10-16T09:15:55.560Z,23.40
2022-10-16T09:18:56.793Z,23.10
2022-10-16T09:21:45.417Z,23.10
2022-10-16T09:24:31.553Z,23.60
2022-10-16T09:27:17.619Z,23.90
2022-10-16T09:30:11.177Z,23.90
2022-10-16T09:32:59.252Z,23.80
2022-10-16T09:35:51.253Z,23.50
2022-10-16T09:38:37.613Z,23.60
2022-10-16T09:41:24.621Z,23.80
2022-10-16T09:44:22.387Z,24.30
2022-10-16T09:47:25.001Z,23.50
2022-10-16T09:50:29.230Z,24.30
2022-10-16T09:53:16.027Z,25.80
2022-10-16T09:56:01.779Z,26.20
2022-10-16T09:58:56.372Z,26.60
2022-10-16T10:01:53.398Z,26.70
2022-10-16T10:04:52.306Z,26.40
2022-10-16T10:07:44.274Z,25.80
2022-10-16T10:10:32.745Z,25.40
2022-10-16T10:13:21.579Z,24.90
2022-10-16T10:16:07.045Z,24.60
2022-10-16T10:19:02.219Z,24.60
2022-10-16T10:21:48.613Z,24.80
2022-10-16T10:24:34.276Z,24.70
2022-10-16T10:27:20.247Z,24.60
2022-10-16T10:30:35.238Z,24.40
2022-10-16T10:33:26.947Z,23.90
2022-10-16T10:36:34.925Z,24.10
2022-10-16T10:39:24.285Z,24.90
2022-10-16T10:42:24.096Z,23.90
2022-10-16T10:45:29.223Z,24.00
2022-10-16T10:48:48.490Z,24.60
2022-10-16T10:51:54.399Z,24.50
2022-10-16T10:55:01.453Z,23.30
2022-10-16T10:57:52.653Z,23.50
2022-10-16T11:00:40.904Z,24.00
2022-10-16T11:03:58.139Z,22.70
2022-10-16T11:06:53.412Z,22.80
2022-10-16T11:09:47.889Z,23.90
2022-10-16T11:12:40.760Z,22.80
2022-10-16T11:15:38.750Z,23.10
2022-10-16T11:18:33.610Z,23.60
2022-10-16T11:21:23.055Z,23.80
2022-10-16T11:24:39.705Z,24.60
2022-10-16T11:27:41.013Z,24.60
2022-10-16T11:37:28.627Z,25.10
2022-10-16T11:40:25.339Z,25.50
2022-10-16T11:43:27.149Z,25.30
2022-10-16T11:46:18.633Z,25.40
2022-10-16T11:49:22.328Z,25.40
2022-10-16T11:52:17.614Z,24.90
2022-10-16T11:55:09.002Z,24.70
2022-10-16T11:58:08.698Z,25.00
2022-10-16T12:01:18.434Z,24.90
2022-10-16T12:04:18.041Z,24.90
2022-10-16T12:07:10.890Z,24.70
2022-10-16T12:10:01.433Z,24.80
2022-10-16T12:12:47.406Z,24.80
2022-10-16T12:15:57.593Z,25.10
2022-10-16T12:18:43.829Z,25.60
2022-10-16T12:21:32.543Z,25.70
2022-10-16T12:24:35.263Z,25.80
2022-10-16T12:27:33.143Z,25.50
2022-10-16T12:30:24.948Z,25.60
2022-10-16T12:33:41.111Z,25.50
2022-10-16T12:36:34.115Z,25.40
2022-10-16T12:39:25.638Z,25.00
2022-10-16T12:42:29.842Z,24.10
2022-10-16T12:45:26.892Z,24.60
2022-10-16T12:48:26.424Z,25.30
2022-10-16T12:51:35.782Z,25.30
2022-10-16T12:54:36.700Z,25.80
2022-10-16T12:57:39.344Z,25.00
2022-10-16T13:00:43.613Z,24.00
2022-10-16T13:03:47.888Z,23.70
2022-10-16T13:06:44.835Z,24.30
2022-10-16T13:09:42.474Z,25.00
2022-10-16T13:12:34.281Z,25.30
2022-10-16T13:15:48.798Z,25.30
2022-10-16T13:18:55.666Z,25.30
2022-10-16T13:21:50.764Z,25.20
2022-10-16T13:24:52.117Z,25.10
2022-10-16T13:27:55.941Z,25.10
2022-10-16T13:30:53.340Z,25.50
2022-10-16T13:33:42.104Z,25.50
2022-10-16T13:36:48.825Z,25.60
2022-10-16T13:39:34.570Z,25.50
2022-10-16T13:42:30.086Z,25.50
2022-10-16T13:45:24.128Z,25.50
2022-10-16T13:48:14.843Z,25.40
2022-10-16T13:51:27.968Z,25.00
2022-10-16T13:54:13.637Z,25.20
2022-10-16T13:57:15.676Z,25.40
2022-10-16T14:00:30.879Z,25.20
2022-10-16T14:03:17.462Z,25.00
2022-10-16T14:06:13.068Z,24.70
2022-10-16T14:09:10.878Z,24.80
2022-10-16T14:12:01.446Z,24.80
2022-10-16T14:14:49.970Z,24.80
2022-10-16T14:17:36.880Z,24.50
2022-10-16T14:20:28.012Z,23.90
2022-10-16T14:23:35.481Z,24.10
2022-10-16T14:26:27.355Z,24.50
2022-10-16T14:29:14.142Z,24.90
2022-10-16T14:32:02.136Z,24.70
2022-10-16T14:34:55.208Z,24.40
2022-10-16T14:37:41.190Z,24.00
2022-10-16T14:40:34.263Z,24.30
2022-10-16T14:43:33.197Z,24.80
2022-10-16T14:46:26.972Z,24.70
2022-10-16T14:49:12.847Z,24.30
2022-10-16T14:51:59.198Z,24.00
2022-10-16T14:54:48.888Z,23.70
2022-10-16T14:57:36.884Z,23.90
2022-10-16T15:00:24.864Z,24.10
2022-10-16T15:03:11.003Z,23.90
2022-10-16T15:05:56.790Z,23.70
2022-10-16T15:08:43.208Z,23.70
2022-10-16T15:11:28.882Z,23.60
2022-10-16T15:17:00.731Z,23.60
2022-10-16T15:19:46.227Z,23.50
2022-10-16T15:22:31.756Z,23.50
2022-10-16T15:25:53.772Z,23.50
2022-10-16T15:28:39.396Z,23.80
2022-10-16T15:31:25.194Z,23.80
2022-10-16T15:34:11.458Z,23.80
2022-10-16T15:36:58.814Z,24.00
2022-10-16T15:39:44.598Z,23.80
2022-10-16T15:42:30.430Z,24.10
2022-10-16T15:45:16.544Z,24.00
2022-10-16T15:48:02.092Z,23.70
2022-10-16T15:50:47.493Z,23.60
2022-10-16T15:53:33.092Z,23.60
2022-10-16T15:56:18.676Z,23.80
2022-10-16T15:59:05.029Z,24.30
2022-10-16T16:01:50.407Z,24.50
2022-10-16T16:04:43.982Z,24.60
2022-10-16T16:07:34.197Z,24.20
2022-10-16T16:10:21.904Z,23.80
2022-10-16T16:13:07.726Z,23.80
2022-10-16T16:15:53.167Z,23.70
2022-10-16T16:18:39.192Z,23.50
2022-10-16T16:21:24.647Z,23.40
2022-10-16T16:24:10.715Z,23.40
2022-10-16T16:26:56.361Z,23.50
2022-10-16T16:29:42.088Z,23.40
2022-10-16T16:32:27.986Z,23.40
2022-10-16T16:35:13.532Z,23.80
2022-10-16T16:37:59.219Z,23.90
2022-10-16T16:40:44.707Z,23.40
2022-10-16T16:43:30.080Z,23.90
2022-10-16T16:46:16.450Z,23.70
2022-10-16T16:49:02.931Z,23.70
2022-10-16T16:51:48.867Z,23.50
2022-10-16T16:57:25.062Z,22.90
2022-10-16T17:00:11.405Z,22.80
2022-10-16T17:02:57.238Z,22.80
2022-10-16T17:05:42.869Z,23.00
2022-10-16T17:08:29.167Z,23.10
2022-10-16T17:11:18.510Z,23.20
2022-10-16T17:14:04.121Z,23.20
2022-10-16T17:16:50.147Z,23.20
2022-10-16T17:19:35.984Z,23.20
2022-10-16T17:22:22.252Z,22.90
2022-10-16T17:25:08.528Z,22.90
2022-10-16T17:27:54.350Z,22.80
2022-10-16T17:30:44.564Z,22.80
2022-10-16T17:33:30.473Z,22.60
2022-10-16T17:36:16.112Z,22.40
2022-10-16T17:39:08.014Z,22.40
2022-10-16T17:41:53.710Z,22.30
2022-10-16T17:44:39.749Z,22.20
2022-10-16T17:47:24.934Z,22.30
2022-10-16T17:50:13.372Z,22.50
2022-10-16T17:53:01.050Z,22.70
2022-10-16T17:55:46.556Z,22.80
2022-10-16T17:58:32.775Z,22.70
2022-10-16T18:01:24.073Z,22.60
2022-10-16T18:04:13.235Z,22.50
2022-10-16T18:07:00.552Z,22.40
2022-10-16T18:10:09.831Z,22.20
2022-10-16T18:12:51.658Z,22.00
2022-10-16T18:15:37.443Z,22.00
2022-10-16T18:18:27.271Z,22.10
2022-10-16T18:21:17.718Z,22.40
2022-10-16T18:24:03.364Z,21.80
2022-10-16T18:26:50.276Z,21.60
2022-10-16T18:29:35.829Z,21.60
2022-10-16T18:32:21.467Z,21.60
2022-10-16T18:35:07.409Z,21.60
2022-10-16T18:37:55.834Z,21.50
2022-10-16T18:40:41.810Z,21.50
2022-10-16T18:43:30.537Z,21.40
2022-10-16T18:46:21.565Z,21.30
2022-10-16T18:49:07.582Z,21.20
2022-10-16T18:51:56.691Z,21.10
2022-10-16T18:54:42.346Z,21.00
2022-10-16T18:57:30.185Z,20.90
2022-10-16T19:00:16.136Z,20.80
2022-10-16T19:03:01.718Z,20.30
2022-10-16T19:05:47.162Z,20.60
2022-10-16T19:08:33.817Z,20.70
2022-10-16T19:11:21.883Z,20.50
2022-10-16T19:14:07.525Z,20.30
2022-10-16T19:16:53.877Z,20.30
2022-10-16T19:19:39.668Z,20.20
2022-10-16T19:22:31.109Z,20.10
2022-10-16T19:25:17.131Z,20.00
2022-10-16T19:28:07.463Z,19.90
2022-10-16T19:30:53.291Z,20.00
2022-10-16T19:33:39.950Z,20.00
2022-10-16T19:36:28.457Z,20.00
2022-10-16T19:39:16.727Z,20.00
2022-10-16T19:42:02.457Z,20.00
2022-10-16T19:44:49.441Z,20.00
2022-10-16T19:47:36.651Z,19.90
2022-10-16T19:50:22.721Z,19.80
2022-10-16T19:53:08.096Z,19.70
2022-10-16T19:55:53.583Z,19.70
2022-10-16T19:58:39.150Z,19.60
2022-10-16T20:01:27.866Z,19.60
2022-10-16T20:04:14.489Z,19.50
2022-10-16T20:07:00.506Z,19.50
2022-10-16T20:09:46.888Z,19.50
2022-10-16T20:12:32.324Z,19.50
2022-10-16T20:15:18.245Z,19.50
2022-10-16T20:18:03.998Z,19.50
2022-10-16T20:20:51.282Z,19.30
2022-10-16T20:23:36.900Z,19.30
2022-10-16T20:26:26.001Z,19.30
2022-10-16T20:29:12.041Z,19.30
2022-10-16T20:31:57.733Z,19.30
2022-10-16T20:34:46.280Z,19.30
2022-10-16T20:37:31.991Z,19.30
2022-10-16T20:40:17.519Z,19.30
2022-10-16T20:43:03.918Z,19.30
2022-10-16T20:46:00.476Z,19.50
2022-10-16T20:48:46.915Z,19.40
2022-10-16T20:51:33.066Z,19.40
2022-10-16T20:54:18.890Z,19.40
2022-10-16T20:57:04.632Z,19.40
2022-10-16T20:59:54.961Z,19.30
2022-10-16T21:02:40.447Z,19.30
2022-10-16T21:05:28.875Z,19.10
2022-10-16T21:08:14.671Z,19.10
2022-10-16T21:11:00.182Z,19.00
2022-10-16T21:13:46.394Z,19.00
2022-10-16T21:16:32.553Z,19.10
2022-10-16T21:19:19.053Z,19.20
2022-10-16T21:22:05.024Z,18.90
2022-10-16T21:24:50.516Z,18.90
2022-10-16T21:27:40.836Z,19.00
2022-10-16T21:30:27.770Z,19.10
2022-10-16T21:33:13.478Z,19.20
2022-10-16T21:36:01.655Z,19.10
2022-10-16T21:38:47.605Z,18.90
2022-10-16T21:41:33.980Z,19.00
2022-10-16T21:44:20.304Z,19.00
2022-10-16T21:47:05.669Z,18.80
2022-10-16T21:49:51.307Z,18.70
2022-10-16T21:52:36.702Z,18.90
2022-10-16T21:55:22.707Z,18.80
2022-10-16T21:58:08.022Z,18.80
2022-10-16T22:00:53.505Z,18.70
2022-10-16T22:03:39.041Z,18.70
2022-10-16T22:06:27.640Z,18.70
2022-10-16T22:09:14.575Z,18.60
2022-10-16T22:12:01.522Z,18.50
2022-10-16T22:14:47.053Z,18.40
2022-10-16T22:17:32.808Z,18.30
2022-10-16T22:20:18.228Z,18.30
2022-10-16T22:23:03.563Z,18.30
2022-10-16T22:25:49.225Z,18.20
2022-10-16T22:28:36.209Z,18.20
2022-10-16T22:31:23.693Z,18.20
2022-10-16T22:34:13.027Z,18.30
2022-10-16T22:36:59.046Z,18.30
2022-10-16T22:39:44.800Z,18.30
2022-10-16T22:42:30.397Z,18.30
2022-10-16T22:45:15.870Z,18.40
2022-10-16T22:48:02.221Z,18.50
2022-10-16T22:50:49.303Z,18.50
2022-10-16T22:53:35.824Z,18.50
2022-10-16T22:56:22.037Z,18.50
2022-10-16T22:59:08.647Z,18.50
2022-10-16T23:01:54.545Z,18.40
2022-10-16T23:04:40.093Z,18.40
2022-10-16T23:07:25.517Z,18.40
2022-10-16T23:10:11.135Z,18.40
2022-10-16T23:12:56.822Z,18.40
2022-10-16T23:15:43.735Z,18.40
2022-10-16T23:18:29.515Z,18.40
2022-10-16T23:21:17.368Z,18.40
2022-10-16T23:24:02.785Z,18.40
2022-10-16T23:26:48.228Z,18.30
2022-10-16T23:29:33.893Z,18.20
2022-10-16T23:32:19.417Z,18.20
2022-10-16T23:35:05.080Z,18.20
2022-10-16T23:37:51.955Z,18.20
2022-10-16T23:40:37.803Z,18.30
2022-10-16T23:43:23.396Z,18.30
2022-10-16T23:46:13.974Z,18.20
2022-10-16T23:48:59.523Z,18.20
2022-10-16T23:51:45.040Z,18.20
2022-10-16T23:54:31.047Z,18.20
2022-10-16T23:57:16.642Z,18.20
